sensor_id;sensor_type;location;lat;lon;timestamp;pressure;altitude;pressure_sealevel;temperature;humidity
13414;BME280;6778;48.136;11.386;2023-02-01T00:00:36;95867.97;;;4.45;70.29
13414;BME280;6778;48.136;11.386;2023-02-01T00:03:06;95855.81;;;4.46;70.53
13414;BME280;6778;48.136;11.386;2023-02-01T00:05:36;95859.38;;;4.45;70.36
13414;BME280;6778;48.136;11.386;2023-02-01T00:08:06;95850.00;;;4.44;70.13
13414;BME280;6778;48.136;11.386;2023-02-01T00:10:37;95857.44;;;4.47;70.03
13414;BME280;6778;48.136;11.386;2023-02-01T00:13:07;95860.03;;;4.47;69.76
13414;BME280;6778;48.136;11.386;2023-02-01T00:15:39;95860.16;;;4.53;69.71
13414;BME280;6778;48.136;11.386;2023-02-01T00:18:09;95865.22;;;4.55;69.75
13414;BME280;6778;48.136;11.386;2023-02-01T00:20:45;95857.75;;;4.52;70.26
13414;BME280;6778;48.136;11.386;2023-02-01T00:23:15;95863.09;;;4.50;70.31
13414;BME280;6778;48.136;11.386;2023-02-01T00:25:45;95854.53;;;4.50;71.44
13414;BME280;6778;48.136;11.386;2023-02-01T00:28:15;95860.69;;;4.49;70.99
13414;BME280;6778;48.136;11.386;2023-02-01T00:30:55;95859.72;;;4.50;71.57
13414;BME280;6778;48.136;11.386;2023-02-01T00:33:26;95853.06;;;4.55;71.05
13414;BME280;6778;48.136;11.386;2023-02-01T00:35:57;95855.16;;;4.52;71.20
13414;BME280;6778;48.136;11.386;2023-02-01T00:38:28;95859.22;;;4.46;71.53
13414;BME280;6778;48.136;11.386;2023-02-01T00:41:04;95855.69;;;4.47;71.73
13414;BME280;6778;48.136;11.386;2023-02-01T00:43:34;95859.06;;;4.48;71.98
13414;BME280;6778;48.136;11.386;2023-02-01T00:46:07;95864.91;;;4.50;72.21
13414;BME280;6778;48.136;11.386;2023-02-01T00:48:37;95856.16;;;4.43;73.28
13414;BME280;6778;48.136;11.386;2023-02-01T00:51:11;95856.47;;;4.39;73.91
13414;BME280;6778;48.136;11.386;2023-02-01T00:53:41;95850.00;;;4.35;75.04
13414;BME280;6778;48.136;11.386;2023-02-01T00:56:12;95850.00;;;4.35;74.72
13414;BME280;6778;48.136;11.386;2023-02-01T00:58:43;95843.22;;;4.34;75.51
13414;BME280;6778;48.136;11.386;2023-02-01T01:01:18;95837.34;;;4.32;75.52
13414;BME280;6778;48.136;11.386;2023-02-01T01:03:51;95833.66;;;4.35;75.32
13414;BME280;6778;48.136;11.386;2023-02-01T01:06:24;95841.44;;;4.35;75.60
13414;BME280;6778;48.136;11.386;2023-02-01T01:08:57;95833.78;;;4.33;75.70
13414;BME280;6778;48.136;11.386;2023-02-01T01:11:30;95832.50;;;4.37;75.13
13414;BME280;6778;48.136;11.386;2023-02-01T01:14:01;95829.28;;;4.35;75.43
13414;BME280;6778;48.136;11.386;2023-02-01T01:16:34;95829.09;;;4.37;76.06
13414;BME280;6778;48.136;11.386;2023-02-01T01:19:04;95833.78;;;4.33;76.59
13414;BME280;6778;48.136;11.386;2023-02-01T01:21:34;95826.00;;;4.33;77.07
13414;BME280;6778;48.136;11.386;2023-02-01T01:24:05;95822.94;;;4.30;78.07
13414;BME280;6778;48.136;11.386;2023-02-01T01:26:36;95829.59;;;4.24;78.77
13414;BME280;6778;48.136;11.386;2023-02-01T01:29:10;95827.31;;;4.29;79.26
13414;BME280;6778;48.136;11.386;2023-02-01T01:31:43;95825.38;;;4.23;79.94
13414;BME280;6778;48.136;11.386;2023-02-01T01:34:13;95829.94;;;4.21;80.47
13414;BME280;6778;48.136;11.386;2023-02-01T01:36:43;95828.63;;;4.17;80.86
13414;BME280;6778;48.136;11.386;2023-02-01T01:39:14;95821.84;;;4.16;81.37
13414;BME280;6778;48.136;11.386;2023-02-01T01:41:44;95821.50;;;4.11;81.13
13414;BME280;6778;48.136;11.386;2023-02-01T01:47:22;95809.19;;;4.05;82.30
13414;BME280;6778;48.136;11.386;2023-02-01T01:49:53;95809.19;;;4.05;82.02
13414;BME280;6778;48.136;11.386;2023-02-01T01:52:23;95806.31;;;4.00;82.50
13414;BME280;6778;48.136;11.386;2023-02-01T01:54:54;95798.69;;;3.98;82.64
13414;BME280;6778;48.136;11.386;2023-02-01T01:57:28;95796.25;;;3.97;82.75
13414;BME280;6778;48.136;11.386;2023-02-01T02:00:11;95805.31;;;3.93;83.22
13414;BME280;6778;48.136;11.386;2023-02-01T02:02:53;95784.28;;;3.88;83.46
13414;BME280;6778;48.136;11.386;2023-02-01T02:05:26;95785.28;;;3.87;83.30
13414;BME280;6778;48.136;11.386;2023-02-01T02:07:59;95777.31;;;3.88;83.75
13414;BME280;6778;48.136;11.386;2023-02-01T02:10:31;95772.94;;;3.89;83.35
13414;BME280;6778;48.136;11.386;2023-02-01T02:13:16;95782.00;;;3.84;83.60
13414;BME280;6778;48.136;11.386;2023-02-01T02:15:59;95777.81;;;3.83;83.90
13414;BME280;6778;48.136;11.386;2023-02-01T02:18:44;95786.06;;;3.87;83.88
13414;BME280;6778;48.136;11.386;2023-02-01T02:21:41;95793.03;;;3.87;83.89
13414;BME280;6778;48.136;11.386;2023-02-01T02:24:43;95793.34;;;3.83;84.05
13414;BME280;6778;48.136;11.386;2023-02-01T02:27:29;95798.88;;;3.89;84.00
13414;BME280;6778;48.136;11.386;2023-02-01T02:30:34;95801.91;;;3.92;83.63
13414;BME280;6778;48.136;11.386;2023-02-01T02:33:42;95803.06;;;3.90;83.77
13414;BME280;6778;48.136;11.386;2023-02-01T02:36:30;95803.06;;;3.90;84.13
13414;BME280;6778;48.136;11.386;2023-02-01T02:39:11;95803.25;;;3.88;83.69
13414;BME280;6778;48.136;11.386;2023-02-01T02:41:53;95812.47;;;3.91;83.82
13414;BME280;6778;48.136;11.386;2023-02-01T02:44:48;95801.91;;;3.92;83.51
13414;BME280;6778;48.136;11.386;2023-02-01T02:47:39;95790.75;;;3.92;83.67
13414;BME280;6778;48.136;11.386;2023-02-01T02:50:23;95793.03;;;3.95;83.14
13414;BME280;6778;48.136;11.386;2023-02-01T02:53:13;95782.00;;;3.93;83.40
13414;BME280;6778;48.136;11.386;2023-02-01T02:55:57;95770.81;;;3.92;83.37
13414;BME280;6778;48.136;11.386;2023-02-01T02:58:43;95782.84;;;3.93;83.25
13414;BME280;6778;48.136;11.386;2023-02-01T03:01:27;95776.19;;;3.91;83.09
13414;BME280;6778;48.136;11.386;2023-02-01T03:04:11;95784.09;;;3.97;82.74
13414;BME280;6778;48.136;11.386;2023-02-01T03:06:49;95768.72;;;3.96;82.45
13414;BME280;6778;48.136;11.386;2023-02-01T03:09:25;95769.06;;;4.01;82.30
13414;BME280;6778;48.136;11.386;2023-02-01T03:12:03;95773.44;;;4.00;82.12
13414;BME280;6778;48.136;11.386;2023-02-01T03:14:57;95781.66;;;4.04;82.32
13414;BME280;6778;48.136;11.386;2023-02-01T03:17:37;95767.09;;;4.03;81.94
13414;BME280;6778;48.136;11.386;2023-02-01T03:20:12;95759.31;;;4.03;81.85
13414;BME280;6778;48.136;11.386;2023-02-01T03:22:59;95764.50;;;4.03;81.60
13414;BME280;6778;48.136;11.386;2023-02-01T03:25:32;95766.13;;;4.04;81.69
13414;BME280;6778;48.136;11.386;2023-02-01T03:28:08;95767.06;;;4.11;81.40
13414;BME280;6778;48.136;11.386;2023-02-01T03:30:42;95765.28;;;4.11;81.29
13414;BME280;6778;48.136;11.386;2023-02-01T03:33:16;95770.66;;;4.10;80.97
13414;BME280;6778;48.136;11.386;2023-02-01T03:36:14;95758.84;;;4.07;80.90
13414;BME280;6778;48.136;11.386;2023-02-01T03:38:55;95762.06;;;4.09;80.95
13414;BME280;6778;48.136;11.386;2023-02-01T03:41:35;95757.88;;;4.08;80.74
13414;BME280;6778;48.136;11.386;2023-02-01T03:44:15;95760.47;;;4.08;80.88
13414;BME280;6778;48.136;11.386;2023-02-01T03:46:51;95759.47;;;4.09;80.67
13414;BME280;6778;48.136;11.386;2023-02-01T03:49:27;95758.03;;;4.07;80.58
13414;BME280;6778;48.136;11.386;2023-02-01T03:51:59;95763.19;;;4.15;80.73
13414;BME280;6778;48.136;11.386;2023-02-01T03:54:33;95748.75;;;4.13;80.26
13414;BME280;6778;48.136;11.386;2023-02-01T03:57:10;95753.94;;;4.13;80.46
13414;BME280;6778;48.136;11.386;2023-02-01T03:59:45;95759.94;;;4.13;80.29
13414;BME280;6778;48.136;11.386;2023-02-01T04:02:19;95750.16;;;4.48;79.76
13414;BME280;6778;48.136;11.386;2023-02-01T04:04:51;95753.69;;;5.63;78.25
13414;BME280;6778;48.136;11.386;2023-02-01T04:07:22;95745.28;;;5.15;76.55
13414;BME280;6778;48.136;11.386;2023-02-01T04:09:54;95754.50;;;5.63;74.67
13414;BME280;6778;48.136;11.386;2023-02-01T04:12:25;95760.34;;;5.42;74.06
13414;BME280;6778;48.136;11.386;2023-02-01T04:14:56;95753.28;;;5.28;74.38
13414;BME280;6778;48.136;11.386;2023-02-01T04:17:27;95744.16;;;5.32;73.40
13414;BME280;6778;48.136;11.386;2023-02-01T04:19:57;95744.56;;;5.67;73.38
13414;BME280;6778;48.136;11.386;2023-02-01T04:22:28;95733.22;;;5.22;73.36
13414;BME280;6778;48.136;11.386;2023-02-01T04:25:02;95735.88;;;5.97;72.75
13414;BME280;6778;48.136;11.386;2023-02-01T04:27:32;95736.34;;;5.55;71.55
13414;BME280;6778;48.136;11.386;2023-02-01T04:30:03;95747.63;;;6.23;70.93
13414;BME280;6778;48.136;11.386;2023-02-01T04:32:37;95744.34;;;5.31;71.92
13414;BME280;6778;48.136;11.386;2023-02-01T04:35:08;95740.56;;;6.46;70.45
13414;BME280;6778;48.136;11.386;2023-02-01T04:37:39;95747.13;;;5.90;69.64
13414;BME280;6778;48.136;11.386;2023-02-01T04:40:13;95765.69;;;6.39;69.78
13414;BME280;6778;48.136;11.386;2023-02-01T04:42:43;95754.50;;;6.01;69.95
13414;BME280;6778;48.136;11.386;2023-02-01T04:45:13;95757.13;;;6.01;69.74
13414;BME280;6778;48.136;11.386;2023-02-01T04:47:43;95757.50;;;5.52;70.29
13414;BME280;6778;48.136;11.386;2023-02-01T04:50:16;95747.09;;;6.27;70.46
13414;BME280;6778;48.136;11.386;2023-02-01T04:52:48;95746.44;;;5.96;68.94
13414;BME280;6778;48.136;11.386;2023-02-01T04:55:20;95749.97;;;6.03;69.13
13414;BME280;6778;48.136;11.386;2023-02-01T04:57:50;95747.81;;;6.36;67.96
13414;BME280;6778;48.136;11.386;2023-02-01T05:00:21;95742.28;;;6.39;66.83
13414;BME280;6778;48.136;11.386;2023-02-01T05:02:52;95738.22;;;7.02;65.81
13414;BME280;6778;48.136;11.386;2023-02-01T05:05:22;95740.75;;;6.30;66.35
13414;BME280;6778;48.136;11.386;2023-02-01T05:07:52;95742.41;;;6.08;67.39
13414;BME280;6778;48.136;11.386;2023-02-01T05:10:25;95745.50;;;6.12;67.52
13414;BME280;6778;48.136;11.386;2023-02-01T05:12:56;95735.56;;;6.30;67.45
13414;BME280;6778;48.136;11.386;2023-02-01T05:15:38;95746.38;;;6.04;67.18
13414;BME280;6778;48.136;11.386;2023-02-01T05:18:09;95752.47;;;6.11;67.20
13414;BME280;6778;48.136;11.386;2023-02-01T05:20:39;95756.16;;;6.17;67.48
13414;BME280;6778;48.136;11.386;2023-02-01T05:23:09;95757.22;;;5.24;70.07
13414;BME280;6778;48.136;11.386;2023-02-01T05:25:43;95745.53;;;4.97;71.97
13414;BME280;6778;48.136;11.386;2023-02-01T05:28:13;95762.13;;;4.88;72.20
13414;BME280;6778;48.136;11.386;2023-02-01T05:30:43;95758.56;;;4.81;72.79
13414;BME280;6778;48.136;11.386;2023-02-01T05:33:14;95768.19;;;4.72;72.95
13414;BME280;6778;48.136;11.386;2023-02-01T05:35:44;95750.56;;;4.68;73.24
13414;BME280;6778;48.136;11.386;2023-02-01T05:38:14;95754.63;;;4.62;73.80
13414;BME280;6778;48.136;11.386;2023-02-01T05:40:47;95744.41;;;4.60;73.46
13414;BME280;6778;48.136;11.386;2023-02-01T05:43:17;95753.50;;;4.56;74.05
13414;BME280;6778;48.136;11.386;2023-02-01T05:45:46;95749.16;;;4.49;74.41
13414;BME280;6778;48.136;11.386;2023-02-01T05:48:16;95750.16;;;4.48;74.41
13414;BME280;6778;48.136;11.386;2023-02-01T05:50:46;95742.84;;;4.43;74.79
13414;BME280;6778;48.136;11.386;2023-02-01T05:53:16;95745.94;;;4.38;74.98
13414;BME280;6778;48.136;11.386;2023-02-01T05:55:49;95746.28;;;4.35;75.48
13414;BME280;6778;48.136;11.386;2023-02-01T05:58:19;95758.59;;;4.33;75.49
13414;BME280;6778;48.136;11.386;2023-02-01T06:00:50;95754.88;;;4.36;75.66
13414;BME280;6778;48.136;11.386;2023-02-01T06:03:19;95746.47;;;4.34;75.68
13414;BME280;6778;48.136;11.386;2023-02-01T06:05:50;95745.16;;;4.30;75.90
13414;BME280;6778;48.136;11.386;2023-02-01T06:08:20;95742.25;;;4.25;76.09
13414;BME280;6778;48.136;11.386;2023-02-01T06:10:57;95739.03;;;4.23;76.42
13414;BME280;6778;48.136;11.386;2023-02-01T06:13:28;95740.47;;;4.25;76.31
13414;BME280;6778;48.136;11.386;2023-02-01T06:16:01;95753.13;;;4.28;75.88
13414;BME280;6778;48.136;11.386;2023-02-01T06:18:33;95757.97;;;4.31;75.84
13414;BME280;6778;48.136;11.386;2023-02-01T06:21:03;95753.94;;;4.29;75.93
13414;BME280;6778;48.136;11.386;2023-02-01T06:23:34;95756.19;;;4.24;75.88
13414;BME280;6778;48.136;11.386;2023-02-01T06:26:07;95755.38;;;4.23;76.12
13414;BME280;6778;48.136;11.386;2023-02-01T06:28:38;95763.31;;;4.30;76.04
13414;BME280;6778;48.136;11.386;2023-02-01T06:31:08;95762.03;;;4.26;76.00
13414;BME280;6778;48.136;11.386;2023-02-01T06:33:39;95740.47;;;4.25;76.09
13414;BME280;6778;48.136;11.386;2023-02-01T06:36:11;95743.72;;;4.27;75.94
13414;BME280;6778;48.136;11.386;2023-02-01T06:38:42;95751.81;;;4.24;75.89
13414;BME280;6778;48.136;11.386;2023-02-01T06:41:16;95759.59;;;4.24;76.06
13414;BME280;6778;48.136;11.386;2023-02-01T06:43:47;95753.28;;;4.27;76.04
13414;BME280;6778;48.136;11.386;2023-02-01T06:46:17;95746.47;;;4.26;76.01
13414;BME280;6778;48.136;11.386;2023-02-01T06:48:47;95732.22;;;4.22;76.41
13414;BME280;6778;48.136;11.386;2023-02-01T06:51:20;95747.44;;;4.25;76.36
13414;BME280;6778;48.136;11.386;2023-02-01T06:53:51;95741.28;;;4.26;76.13
13414;BME280;6778;48.136;11.386;2023-02-01T06:56:24;95743.25;;;4.24;76.40
13414;BME280;6778;48.136;11.386;2023-02-01T06:58:54;95748.75;;;4.29;76.33
13414;BME280;6778;48.136;11.386;2023-02-01T07:01:25;95740.78;;;4.30;76.36
13414;BME280;6778;48.136;11.386;2023-02-01T07:03:56;95739.97;;;4.30;76.36
13414;BME280;6778;48.136;11.386;2023-02-01T07:06:26;95742.41;;;4.31;76.05
13414;BME280;6778;48.136;11.386;2023-02-01T07:08:57;95747.09;;;4.36;76.00
13414;BME280;6778;48.136;11.386;2023-02-01T07:11:30;95734.13;;;4.36;76.26
13414;BME280;6778;48.136;11.386;2023-02-01T07:14:00;95740.44;;;4.42;76.03
13414;BME280;6778;48.136;11.386;2023-02-01T07:16:30;95745.78;;;4.40;75.99
13414;BME280;6778;48.136;11.386;2023-02-01T07:19:00;95730.22;;;4.40;75.76
13414;BME280;6778;48.136;11.386;2023-02-01T07:21:31;95733.28;;;4.44;75.78
13414;BME280;6778;48.136;11.386;2023-02-01T07:24:01;95728.72;;;4.46;75.37
13414;BME280;6778;48.136;11.386;2023-02-01T07:26:33;95735.06;;;4.43;75.30
13414;BME280;6778;48.136;11.386;2023-02-01T07:29:03;95733.25;;;4.52;75.60
13414;BME280;6778;48.136;11.386;2023-02-01T07:31:33;95736.81;;;4.51;75.30
13414;BME280;6778;48.136;11.386;2023-02-01T07:34:04;95728.38;;;4.57;75.26
13414;BME280;6778;48.136;11.386;2023-02-01T07:36:34;95740.53;;;4.56;75.40
13414;BME280;6778;48.136;11.386;2023-02-01T07:39:04;95732.44;;;4.51;75.05
13414;BME280;6778;48.136;11.386;2023-02-01T07:41:36;95726.94;;;4.54;75.14
13414;BME280;6778;48.136;11.386;2023-02-01T07:44:06;95722.19;;;4.58;74.62
13414;BME280;6778;48.136;11.386;2023-02-01T07:46:36;95716.38;;;4.56;74.90
13414;BME280;6778;48.136;11.386;2023-02-01T07:49:06;95715.56;;;4.55;74.59
13414;BME280;6778;48.136;11.386;2023-02-01T07:51:36;95718.97;;;4.56;74.17
13414;BME280;6778;48.136;11.386;2023-02-01T07:54:06;95724.81;;;4.58;74.01
13414;BME280;6778;48.136;11.386;2023-02-01T07:56:38;95730.59;;;4.68;73.54
13414;BME280;6778;48.136;11.386;2023-02-01T07:59:08;95726.38;;;4.67;73.05
13414;BME280;6778;48.136;11.386;2023-02-01T08:01:38;95741.63;;;4.70;72.59
13414;BME280;6778;48.136;11.386;2023-02-01T08:04:06;95749.53;;;4.77;71.90
13414;BME280;6778;48.136;11.386;2023-02-01T08:06:37;95761.34;;;4.79;71.88
13414;BME280;6778;48.136;11.386;2023-02-01T08:09:07;95770.47;;;4.75;71.54
13414;BME280;6778;48.136;11.386;2023-02-01T08:11:40;95769.31;;;4.78;71.73
13414;BME280;6778;48.136;11.386;2023-02-01T08:14:10;95769.78;;;4.81;71.29
13414;BME280;6778;48.136;11.386;2023-02-01T08:16:40;95764.59;;;4.81;70.89
13414;BME280;6778;48.136;11.386;2023-02-01T08:19:10;95765.84;;;4.85;70.88
13414;BME280;6778;48.136;11.386;2023-02-01T08:21:40;95771.41;;;4.82;70.28
13414;BME280;6778;48.136;11.386;2023-02-01T08:24:10;95768.94;;;4.89;70.19
13414;BME280;6778;48.136;11.386;2023-02-01T08:26:42;95764.38;;;4.91;70.16
13414;BME280;6778;48.136;11.386;2023-02-01T08:29:13;95781.56;;;4.92;69.91
13414;BME280;6778;48.136;11.386;2023-02-01T08:31:43;95782.38;;;4.92;70.03
13414;BME280;6778;48.136;11.386;2023-02-01T08:34:13;95787.56;;;4.92;69.72
13414;BME280;6778;48.136;11.386;2023-02-01T08:36:43;95780.09;;;4.98;69.47
13414;BME280;6778;48.136;11.386;2023-02-01T08:39:13;95756.72;;;4.98;69.16
13414;BME280;6778;48.136;11.386;2023-02-01T08:41:46;95761.84;;;5.06;68.75
13414;BME280;6778;48.136;11.386;2023-02-01T08:44:36;95771.38;;;5.13;68.55
13414;BME280;6778;48.136;11.386;2023-02-01T08:47:06;95763.16;;;5.10;68.46
13414;BME280;6778;48.136;11.386;2023-02-01T08:49:38;95753.50;;;5.18;68.16
13414;BME280;6778;48.136;11.386;2023-02-01T08:52:10;95752.53;;;5.19;67.77
13414;BME280;6778;48.136;11.386;2023-02-01T08:54:42;95771.38;;;5.22;67.70
13414;BME280;6778;48.136;11.386;2023-02-01T08:57:15;95772.63;;;5.26;67.34
13414;BME280;6778;48.136;11.386;2023-02-01T08:59:45;95765.31;;;5.29;67.58
13414;BME280;6778;48.136;11.386;2023-02-01T09:02:16;95767.91;;;5.29;67.02
13414;BME280;6778;48.136;11.386;2023-02-01T09:04:46;95761.06;;;5.28;66.85
13414;BME280;6778;48.136;11.386;2023-02-01T09:07:16;95752.44;;;5.36;67.40
13414;BME280;6778;48.136;11.386;2023-02-01T09:09:46;95768.13;;;5.42;66.72
13414;BME280;6778;48.136;11.386;2023-02-01T09:12:19;95780.59;;;5.47;67.09
13414;BME280;6778;48.136;11.386;2023-02-01T09:14:49;95792.31;;;5.43;66.66
13414;BME280;6778;48.136;11.386;2023-02-01T09:17:19;95783.53;;;5.44;67.38
13414;BME280;6778;48.136;11.386;2023-02-01T09:19:49;95774.59;;;5.46;66.74
13414;BME280;6778;48.136;11.386;2023-02-01T09:22:19;95789.84;;;5.50;66.76
13414;BME280;6778;48.136;11.386;2023-02-01T09:24:49;95790.47;;;5.52;66.79
13414;BME280;6778;48.136;11.386;2023-02-01T09:27:23;95783.78;;;5.57;66.96
13414;BME280;6778;48.136;11.386;2023-02-01T09:29:53;95785.22;;;5.60;66.97
13414;BME280;6778;48.136;11.386;2023-02-01T09:32:24;95775.56;;;5.68;67.02
13414;BME280;6778;48.136;11.386;2023-02-01T09:34:54;95776.22;;;5.70;66.40
13414;BME280;6778;48.136;11.386;2023-02-01T09:37:24;95778.13;;;5.77;66.45
13414;BME280;6778;48.136;11.386;2023-02-01T09:39:56;95776.75;;;5.81;66.28
13414;BME280;6778;48.136;11.386;2023-02-01T09:42:47;95780.81;;;5.83;65.96
13414;BME280;6778;48.136;11.386;2023-02-01T09:45:28;95776.38;;;5.92;65.91
13414;BME280;6778;48.136;11.386;2023-02-01T09:48:11;95775.13;;;6.02;66.11
13414;BME280;6778;48.136;11.386;2023-02-01T09:50:48;95758.72;;;6.02;65.03
13414;BME280;6778;48.136;11.386;2023-02-01T09:53:25;95762.59;;;6.06;65.15
13414;BME280;6778;48.136;11.386;2023-02-01T09:56:04;95756.88;;;6.11;64.82
13414;BME280;6778;48.136;11.386;2023-02-01T09:58:42;95755.88;;;6.12;65.20
13414;BME280;6778;48.136;11.386;2023-02-01T10:01:19;95771.22;;;6.07;65.51
13414;BME280;6778;48.136;11.386;2023-02-01T10:03:57;95766.19;;;6.05;65.69
13414;BME280;6778;48.136;11.386;2023-02-01T10:06:41;95776.66;;;5.97;65.94
13414;BME280;6778;48.136;11.386;2023-02-01T10:09:34;95776.41;;;6.07;66.56
13414;BME280;6778;48.136;11.386;2023-02-01T10:12:31;95781.69;;;5.98;65.98
13414;BME280;6778;48.136;11.386;2023-02-01T10:15:24;95764.13;;;6.00;66.18
13414;BME280;6778;48.136;11.386;2023-02-01T10:18:16;95774.22;;;5.95;66.60
13414;BME280;6778;48.136;11.386;2023-02-01T10:20:57;95784.09;;;6.00;66.53
13414;BME280;6778;48.136;11.386;2023-02-01T10:23:54;95777.22;;;5.84;66.78
13414;BME280;6778;48.136;11.386;2023-02-01T10:26:47;95784.47;;;5.89;66.87
13414;BME280;6778;48.136;11.386;2023-02-01T10:29:25;95788.06;;;5.88;67.15
13414;BME280;6778;48.136;11.386;2023-02-01T10:31:58;95788.63;;;5.83;67.45
13414;BME280;6778;48.136;11.386;2023-02-01T10:34:33;95790.13;;;5.78;67.19
13414;BME280;6778;48.136;11.386;2023-02-01T10:37:18;95801.06;;;5.88;66.91
13414;BME280;6778;48.136;11.386;2023-02-01T10:39:56;95793.06;;;5.97;66.70
13414;BME280;6778;48.136;11.386;2023-02-01T10:42:28;95799.53;;;6.01;66.68
13414;BME280;6778;48.136;11.386;2023-02-01T10:45:03;95811.38;;;6.04;67.07
13414;BME280;6778;48.136;11.386;2023-02-01T10:47:36;95812.72;;;6.00;66.98
13414;BME280;6778;48.136;11.386;2023-02-01T10:50:16;95797.00;;;5.93;67.07
13414;BME280;6778;48.136;11.386;2023-02-01T10:52:54;95813.06;;;5.97;67.40
13414;BME280;6778;48.136;11.386;2023-02-01T10:55:33;95808.69;;;5.97;67.26
13414;BME280;6778;48.136;11.386;2023-02-01T10:58:14;95803.84;;;5.86;67.23
13414;BME280;6778;48.136;11.386;2023-02-01T11:00:48;95812.63;;;5.85;67.73
13414;BME280;6778;48.136;11.386;2023-02-01T11:03:39;95809.75;;;5.80;67.41
13414;BME280;6778;48.136;11.386;2023-02-01T11:06:18;95810.66;;;5.87;67.66
13414;BME280;6778;48.136;11.386;2023-02-01T11:08:50;95819.91;;;5.90;67.09
13414;BME280;6778;48.136;11.386;2023-02-01T11:11:21;95816.13;;;6.00;67.13
13414;BME280;6778;48.136;11.386;2023-02-01T11:13:55;95821.81;;;5.96;66.86
13414;BME280;6778;48.136;11.386;2023-02-01T11:16:36;95824.78;;;5.93;67.37
13414;BME280;6778;48.136;11.386;2023-02-01T11:19:15;95814.22;;;5.94;67.00
13414;BME280;6778;48.136;11.386;2023-02-01T11:21:49;95826.91;;;5.89;67.00
13414;BME280;6778;48.136;11.386;2023-02-01T11:24:23;95817.66;;;5.87;66.74
13414;BME280;6778;48.136;11.386;2023-02-01T11:26:56;95818.66;;;5.86;66.71
13414;BME280;6778;48.136;11.386;2023-02-01T11:29:34;95816.22;;;5.84;66.98
13414;BME280;6778;48.136;11.386;2023-02-01T11:32:08;95832.34;;;5.80;66.49
13414;BME280;6778;48.136;11.386;2023-02-01T11:34:46;95825.69;;;5.77;66.76
13414;BME280;6778;48.136;11.386;2023-02-01T11:37:21;95840.75;;;5.82;67.10
13414;BME280;6778;48.136;11.386;2023-02-01T11:39:57;95848.91;;;5.79;66.84
13414;BME280;6778;48.136;11.386;2023-02-01T11:42:28;95834.63;;;5.74;66.85
13414;BME280;6778;48.136;11.386;2023-02-01T11:45:18;95850.19;;;5.83;67.85
13414;BME280;6778;48.136;11.386;2023-02-01T11:47:52;95840.19;;;5.71;67.78
13414;BME280;6778;48.136;11.386;2023-02-01T11:50:31;95839.78;;;5.60;67.83
13414;BME280;6778;48.136;11.386;2023-02-01T11:53:35;95836.84;;;5.63;68.46
13414;BME280;6778;48.136;11.386;2023-02-01T11:56:19;95832.47;;;5.63;68.50
13414;BME280;6778;48.136;11.386;2023-02-01T11:59:14;95829.88;;;5.55;68.79
13414;BME280;6778;48.136;11.386;2023-02-01T12:02:02;95821.41;;;5.61;68.30
13414;BME280;6778;48.136;11.386;2023-02-01T12:05:01;95825.78;;;5.61;68.48
13414;BME280;6778;48.136;11.386;2023-02-01T12:08:02;95800.69;;;5.53;68.74
13414;BME280;6778;48.136;11.386;2023-02-01T12:10:48;95814.16;;;5.57;68.66
13414;BME280;6778;48.136;11.386;2023-02-01T12:13:30;95800.97;;;5.58;68.80
13414;BME280;6778;48.136;11.386;2023-02-01T12:16:17;95795.59;;;5.60;68.68
13414;BME280;6778;48.136;11.386;2023-02-01T12:19:02;95783.91;;;5.64;68.85
13414;BME280;6778;48.136;11.386;2023-02-01T12:21:52;95780.25;;;5.50;68.38
13414;BME280;6778;48.136;11.386;2023-02-01T12:24:53;95774.59;;;5.46;68.72
13414;BME280;6778;48.136;11.386;2023-02-01T12:27:44;95775.56;;;5.45;69.17
13414;BME280;6778;48.136;11.386;2023-02-01T12:30:53;95773.78;;;5.46;68.54
13414;BME280;6778;48.136;11.386;2023-02-01T12:33:44;95775.75;;;5.44;68.88
13414;BME280;6778;48.136;11.386;2023-02-01T12:36:25;95771.69;;;5.41;68.94
13414;BME280;6778;48.136;11.386;2023-02-01T12:39:06;95776.88;;;5.41;68.90
13414;BME280;6778;48.136;11.386;2023-02-01T12:42:01;95772.22;;;5.37;68.55
13414;BME280;6778;48.136;11.386;2023-02-01T12:44:43;95767.97;;;5.44;67.89
13414;BME280;6778;48.136;11.386;2023-02-01T12:47:22;95758.19;;;5.46;68.04
13414;BME280;6778;48.136;11.386;2023-02-01T12:50:01;95754.78;;;5.45;67.58
13414;BME280;6778;48.136;11.386;2023-02-01T12:52:39;95754.16;;;5.43;67.04
13414;BME280;6778;48.136;11.386;2023-02-01T12:55:22;95757.56;;;5.44;67.25
13414;BME280;6778;48.136;11.386;2023-02-01T12:58:07;95759.34;;;5.43;67.14
13414;BME280;6778;48.136;11.386;2023-02-01T13:00:47;95743.78;;;5.43;66.99
13414;BME280;6778;48.136;11.386;2023-02-01T13:03:29;95748.50;;;5.40;66.83
13414;BME280;6778;48.136;11.386;2023-02-01T13:06:09;95744.41;;;5.45;66.56
13414;BME280;6778;48.136;11.386;2023-02-01T13:08:48;95757.22;;;5.47;67.07
13414;BME280;6778;48.136;11.386;2023-02-01T13:11:26;95743.41;;;5.46;67.19
13414;BME280;6778;48.136;11.386;2023-02-01T13:14:10;95738.56;;;5.43;67.54
13414;BME280;6778;48.136;11.386;2023-02-01T13:16:46;95747.00;;;5.45;67.88
13414;BME280;6778;48.136;11.386;2023-02-01T13:19:23;95732.03;;;5.47;68.11
13414;BME280;6778;48.136;11.386;2023-02-01T13:22:00;95740.63;;;5.48;68.18
13414;BME280;6778;48.136;11.386;2023-02-01T13:24:40;95738.69;;;5.50;68.30
13414;BME280;6778;48.136;11.386;2023-02-01T13:27:14;95730.09;;;5.50;68.70
13414;BME280;6778;48.136;11.386;2023-02-01T13:29:55;95721.13;;;5.52;69.11
13414;BME280;6778;48.136;11.386;2023-02-01T13:39:25;95718.91;;;5.49;69.82
13414;BME280;6778;48.136;11.386;2023-02-01T13:42:03;95715.94;;;5.52;69.94
13414;BME280;6778;48.136;11.386;2023-02-01T13:44:40;95719.97;;;5.55;69.80
13414;BME280;6778;48.136;11.386;2023-02-01T13:47:23;95720.31;;;5.52;69.79
13414;BME280;6778;48.136;11.386;2023-02-01T13:49:57;95724.72;;;5.51;69.55
13414;BME280;6778;48.136;11.386;2023-02-01T13:52:34;95719.97;;;5.55;69.95
13414;BME280;6778;48.136;11.386;2023-02-01T13:55:30;95717.38;;;5.55;69.77
13414;BME280;6778;48.136;11.386;2023-02-01T13:58:10;95720.31;;;5.52;69.84
13414;BME280;6778;48.136;11.386;2023-02-01T14:00:43;95724.72;;;5.51;70.23
13414;BME280;6778;48.136;11.386;2023-02-01T14:03:18;95728.75;;;5.54;69.70
13414;BME280;6778;48.136;11.386;2023-02-01T14:06:01;95735.63;;;5.46;69.72